MAS2274 WMKK-WIII
Flight info
| Callsign | MAS2274 |
|---|---|
| Flight time | N/A |
| Altitude | 41000 |
| Route | MITOS1E MITOS M630 BOBAG P501 ANITO B470 BUNIK |
| Aircraft | A333/H-SDE3GHIJ2J3J5M1RVWXY/LB2D1 |
Departure
| Time | 2026-04-30 14:34 |
|---|---|
| Airport | Kuala Lumpur International Airport (WMKK) |
Arrival
| Time | N/A |
|---|---|
| Airport | Soekarno-Hatta International Airport (WIII) |
| Time | Latitude | Longitude | Altitude | Speed | Heading |
|---|---|---|---|---|---|
| 2026-04-30 14:07 | 2.74860 | 101.71574 | 67 ft | 0 kts | 326° |
| 2026-04-30 14:08 | 2.74962 | 101.71465 | 67 ft | 0 kts | 146° |
| 2026-04-30 14:22 | 2.74963 | 101.71464 | 67 ft | 2 kts | 146° |
| 2026-04-30 14:23 | 2.74989 | 101.71445 | 66 ft | 2 kts | 137° |
| 2026-04-30 14:23 | 2.75005 | 101.71418 | 69 ft | 2 kts | 75° |
| 2026-04-30 14:24 | 2.75003 | 101.71411 | 66 ft | 0 kts | 69° |
| 2026-04-30 14:26 | 2.75006 | 101.71417 | 69 ft | 2 kts | 69° |
| 2026-04-30 14:26 | 2.75008 | 101.71422 | 68 ft | 1 kts | 66° |
| 2026-04-30 14:27 | 2.75013 | 101.71427 | 66 ft | 2 kts | 50° |
| 2026-04-30 14:27 | 2.75031 | 101.71449 | 66 ft | 6 kts | 50° |
| 2026-04-30 14:27 | 2.75065 | 101.71492 | 67 ft | 9 kts | 54° |
| 2026-04-30 14:28 | 2.75161 | 101.71633 | 69 ft | 15 kts | 56° |
| 2026-04-30 14:28 | 2.75194 | 101.71712 | 71 ft | 7 kts | 101° |
| 2026-04-30 14:28 | 2.75170 | 101.71746 | 68 ft | 6 kts | 134° |
| 2026-04-30 14:28 | 2.75138 | 101.71772 | 68 ft | 6 kts | 143° |
| 2026-04-30 14:29 | 2.75059 | 101.71827 | 70 ft | 7 kts | 146° |
| 2026-04-30 14:29 | 2.74993 | 101.71871 | 84 ft | 6 kts | 146° |
| 2026-04-30 14:30 | 2.74855 | 101.71963 | 85 ft | 10 kts | 146° |
| 2026-04-30 14:31 | 2.74814 | 101.71990 | 84 ft | 0 kts | 146° |
| 2026-04-30 14:31 | 2.74794 | 101.72004 | 84 ft | 6 kts | 144° |
| 2026-04-30 14:31 | 2.74765 | 101.72043 | 86 ft | 8 kts | 108° |
| 2026-04-30 14:32 | 2.74771 | 101.72088 | 87 ft | 0 kts | 68° |
| 2026-04-30 14:32 | 2.74774 | 101.72096 | 86 ft | 5 kts | 66° |
| 2026-04-30 14:32 | 2.74809 | 101.72149 | 86 ft | 12 kts | 45° |
| 2026-04-30 14:33 | 2.74878 | 101.72173 | 85 ft | 9 kts | 342° |
| 2026-04-30 14:33 | 2.74899 | 101.72163 | 85 ft | 0 kts | 330° |
| 2026-04-30 14:33 | 2.74992 | 101.72107 | 86 ft | 45 kts | 328° |
| 2026-04-30 14:34 | 2.75431 | 101.71811 | 74 ft | 105 kts | 326° |
| 2026-04-30 14:34 | 2.76182 | 101.71308 | 65 ft | 153 kts | 327° |
| 2026-04-30 14:34 | 2.77131 | 101.70690 | 426 ft | 170 kts | 327° |
| 2026-04-30 14:34 | 2.78146 | 101.70001 | 861 ft | 181 kts | 326° |
| 2026-04-30 14:35 | 2.79990 | 101.68890 | 1692 ft | 199 kts | 338° |
| 2026-04-30 14:35 | 2.81872 | 101.68190 | 1958 ft | 235 kts | 341° |
| 2026-04-30 14:35 | 2.83484 | 101.67629 | 2243 ft | 254 kts | 341° |
| 2026-04-30 14:36 | 2.85193 | 101.67027 | 2740 ft | 265 kts | 340° |
| 2026-04-30 14:36 | 2.86945 | 101.66402 | 3348 ft | 269 kts | 341° |
| 2026-04-30 14:36 | 2.88746 | 101.65898 | 4012 ft | 270 kts | 354° |
| 2026-04-30 14:36 | 2.90596 | 101.66053 | 4718 ft | 268 kts | 20° |
| 2026-04-30 14:37 | 2.92164 | 101.67020 | 5407 ft | 267 kts | 46° |
| 2026-04-30 14:37 | 2.93187 | 101.68558 | 6166 ft | 265 kts | 63° |
| 2026-04-30 14:37 | 2.93953 | 101.70224 | 6926 ft | 264 kts | 66° |
| 2026-04-30 14:37 | 2.94578 | 101.71963 | 7568 ft | 268 kts | 77° |
| 2026-04-30 14:38 | 2.94672 | 101.73833 | 8228 ft | 273 kts | 97° |
| 2026-04-30 14:38 | 2.94040 | 101.75632 | 8927 ft | 279 kts | 119° |
| 2026-04-30 14:38 | 2.92789 | 101.77134 | 9664 ft | 284 kts | 133° |
| 2026-04-30 14:38 | 2.91334 | 101.78506 | 10197 ft | 293 kts | 135° |
| 2026-04-30 14:39 | 2.89787 | 101.79923 | 10482 ft | 310 kts | 135° |
| 2026-04-30 14:39 | 2.88157 | 101.81425 | 10728 ft | 328 kts | 135° |
| 2026-04-30 14:39 | 2.86453 | 101.83008 | 11052 ft | 340 kts | 135° |
| 2026-04-30 14:40 | 2.82951 | 101.86281 | 12094 ft | 348 kts | 135° |
| 2026-04-30 14:40 | 2.81175 | 101.87946 | 12667 ft | 351 kts | 134° |
| 2026-04-30 14:40 | 2.79389 | 101.89624 | 13230 ft | 354 kts | 134° |
| 2026-04-30 14:40 | 2.77588 | 101.91315 | 13785 ft | 357 kts | 134° |
| 2026-04-30 14:41 | 2.75771 | 101.93022 | 14270 ft | 360 kts | 134° |
| 2026-04-30 14:41 | 2.73941 | 101.94742 | 14742 ft | 362 kts | 134° |
| 2026-04-30 14:41 | 2.72097 | 101.96475 | 15216 ft | 365 kts | 135° |
| 2026-04-30 14:41 | 2.70239 | 101.98221 | 15689 ft | 368 kts | 135° |
| 2026-04-30 14:42 | 2.68368 | 101.99979 | 16143 ft | 371 kts | 135° |
| 2026-04-30 14:42 | 2.66484 | 102.01750 | 16615 ft | 373 kts | 135° |
| 2026-04-30 14:42 | 2.64584 | 102.03536 | 17045 ft | 376 kts | 135° |
| 2026-04-30 14:42 | 2.62671 | 102.05333 | 17507 ft | 378 kts | 135° |
| 2026-04-30 14:43 | 2.60674 | 102.07053 | 17954 ft | 382 kts | 142° |
| 2026-04-30 14:43 | 2.58355 | 102.08381 | 18353 ft | 388 kts | 155° |
| 2026-04-30 14:43 | 2.55740 | 102.09109 | 18711 ft | 394 kts | 169° |
| 2026-04-30 14:43 | 2.52984 | 102.09304 | 19083 ft | 398 kts | 176° |
| 2026-04-30 14:44 | 2.50203 | 102.09351 | 19437 ft | 401 kts | 177° |
| 2026-04-30 14:44 | 2.48356 | 102.09371 | 19672 ft | 402 kts | 177° |
| 2026-04-30 14:44 | 2.45469 | 102.09406 | 20037 ft | 404 kts | 177° |
| 2026-04-30 14:44 | 2.42649 | 102.09448 | 20386 ft | 406 kts | 176° |
| 2026-04-30 14:45 | 2.39816 | 102.09495 | 20744 ft | 408 kts | 176° |
| 2026-04-30 14:45 | 2.36967 | 102.09545 | 21095 ft | 410 kts | 176° |
| 2026-04-30 14:45 | 2.34104 | 102.09596 | 21438 ft | 412 kts | 176° |
| 2026-04-30 14:45 | 2.31228 | 102.09649 | 21775 ft | 414 kts | 176° |
| 2026-04-30 14:46 | 2.28342 | 102.09703 | 22111 ft | 416 kts | 176° |
| 2026-04-30 14:46 | 2.25433 | 102.09757 | 22435 ft | 419 kts | 176° |
| 2026-04-30 14:46 | 2.22517 | 102.09812 | 22777 ft | 420 kts | 176° |
| 2026-04-30 14:46 | 2.20535 | 102.09849 | 22997 ft | 422 kts | 176° |
| 2026-04-30 14:47 | 2.16635 | 102.09922 | 23417 ft | 425 kts | 176° |
| 2026-04-30 14:47 | 2.13676 | 102.09977 | 23697 ft | 427 kts | 176° |
| 2026-04-30 14:47 | 2.10703 | 102.10033 | 23944 ft | 429 kts | 177° |
| 2026-04-30 14:47 | 2.07713 | 102.10089 | 24207 ft | 430 kts | 177° |
| 2026-04-30 14:48 | 2.04722 | 102.10239 | 24473 ft | 431 kts | 171° |
| 2026-04-30 14:48 | 2.01780 | 102.10803 | 24725 ft | 430 kts | 162° |
| 2026-04-30 14:48 | 1.98996 | 102.11879 | 24981 ft | 429 kts | 151° |
| 2026-04-30 14:48 | 1.96461 | 102.13444 | 25233 ft | 429 kts | 141° |
| 2026-04-30 14:49 | 1.94258 | 102.15443 | 25487 ft | 428 kts | 130° |
| 2026-04-30 14:49 | 1.93006 | 102.16964 | 25656 ft | 428 kts | 126° |
| 2026-04-30 14:49 | 1.90682 | 102.20209 | 25992 ft | 430 kts | 123° |
| 2026-04-30 14:49 | 1.89020 | 102.22709 | 26248 ft | 432 kts | 122° |
| 2026-04-30 14:50 | 1.86290 | 102.26908 | 26660 ft | 435 kts | 122° |
| 2026-04-30 14:50 | 1.84632 | 102.29449 | 26859 ft | 438 kts | 122° |
| 2026-04-30 14:51 | 1.81256 | 102.34557 | 27350 ft | 442 kts | 122° |
| 2026-04-30 14:51 | 1.78994 | 102.37947 | 27695 ft | 444 kts | 122° |
| 2026-04-30 14:51 | 1.76107 | 102.42259 | 28098 ft | 447 kts | 122° |
| 2026-04-30 14:52 | 1.74374 | 102.44846 | 28336 ft | 449 kts | 122° |
| 2026-04-30 14:52 | 1.70888 | 102.50051 | 28799 ft | 452 kts | 122° |
| 2026-04-30 14:52 | 1.69136 | 102.52668 | 29034 ft | 454 kts | 122° |
| 2026-04-30 14:53 | 1.65608 | 102.57939 | 29464 ft | 458 kts | 122° |
| 2026-04-30 14:53 | 1.63834 | 102.60589 | 29696 ft | 459 kts | 122° |
| 2026-04-30 14:54 | 1.60269 | 102.65915 | 30096 ft | 463 kts | 122° |
| 2026-04-30 14:54 | 1.56681 | 102.71276 | 30470 ft | 465 kts | 122° |
| 2026-04-30 14:55 | 1.53077 | 102.76659 | 30838 ft | 467 kts | 122° |
| 2026-04-30 14:55 | 1.51288 | 102.79330 | 31023 ft | 468 kts | 122° |
| 2026-04-30 14:55 | 1.47658 | 102.84753 | 31396 ft | 470 kts | 122° |
| 2026-04-30 14:56 | 1.44011 | 102.90199 | 31755 ft | 472 kts | 123° |
| 2026-04-30 14:56 | 1.40357 | 102.95656 | 32203 ft | 472 kts | 123° |
| 2026-04-30 14:57 | 1.38534 | 102.98379 | 32498 ft | 471 kts | 123° |
| 2026-04-30 14:57 | 1.34906 | 103.03806 | 33032 ft | 469 kts | 123° |
| 2026-04-30 14:58 | 1.31293 | 103.09217 | 33557 ft | 467 kts | 123° |
| 2026-04-30 14:58 | 1.29491 | 103.11915 | 33834 ft | 466 kts | 123° |
| 2026-04-30 14:58 | 1.25895 | 103.17299 | 34308 ft | 465 kts | 123° |
| 2026-04-30 14:59 | 1.22318 | 103.22655 | 34779 ft | 463 kts | 123° |
| 2026-04-30 15:00 | 1.16973 | 103.30656 | 35448 ft | 460 kts | 123° |
| 2026-04-30 15:00 | 1.13430 | 103.35959 | 35917 ft | 458 kts | 123° |
| 2026-04-30 15:01 | 1.09898 | 103.41246 | 36414 ft | 456 kts | 123° |
| 2026-04-30 15:01 | 1.08142 | 103.43874 | 36679 ft | 454 kts | 123° |
| 2026-04-30 15:01 | 1.04580 | 103.49073 | 37102 ft | 453 kts | 128° |
| 2026-04-30 15:02 | 1.02524 | 103.51447 | 37404 ft | 451 kts | 132° |
| 2026-04-30 15:02 | 1.00403 | 103.53737 | 37719 ft | 448 kts | 133° |